createdAt,value
2019-05-23T00:02:30.095Z,11.65
2019-05-23T00:07:55.270Z,13.72
2019-05-23T00:13:35.708Z,15.00
2019-05-23T00:18:44.687Z,11.33
2019-05-23T00:23:51.944Z,15.72
2019-05-23T00:29:09.491Z,18.37
2019-05-23T00:34:11.555Z,16.32
2019-05-23T00:39:18.847Z,14.43
2019-05-23T00:44:26.027Z,14.55
2019-05-23T00:49:33.761Z,11.22
2019-05-23T00:54:40.299Z,10.38
2019-05-23T00:59:47.610Z,13.03
2019-05-23T01:04:54.508Z,13.75
2019-05-23T01:10:01.697Z,16.02
2019-05-23T01:15:10.168Z,17.45
2019-05-23T01:20:21.160Z,11.60
2019-05-23T01:25:29.248Z,13.85
2019-05-23T01:30:41.919Z,14.28
2019-05-23T01:35:49.734Z,11.00
2019-05-23T01:40:56.514Z,14.50
2019-05-23T01:46:04.608Z,10.05
2019-05-23T01:51:11.316Z,13.45
2019-05-23T01:56:18.501Z,12.68
2019-05-23T02:01:25.716Z,13.45
2019-05-23T02:06:32.514Z,13.53
2019-05-23T02:11:40.261Z,12.18
2019-05-23T02:16:47.383Z,14.05
2019-05-23T02:21:53.982Z,14.98
2019-05-23T02:27:01.685Z,14.58
2019-05-23T02:32:10.045Z,13.03
2019-05-23T02:37:35.644Z,15.85
2019-05-23T02:42:46.121Z,13.22
2019-05-23T02:47:55.686Z,16.45
2019-05-23T02:53:03.247Z,14.23
2019-05-23T02:58:31.201Z,15.72
2019-05-23T03:03:40.095Z,15.00
2019-05-23T03:08:48.835Z,11.12
2019-05-23T03:13:56.141Z,12.07
2019-05-23T03:19:07.748Z,14.53
2019-05-23T03:24:15.205Z,15.30
2019-05-23T03:29:23.034Z,12.80
2019-05-23T03:34:33.493Z,14.25
2019-05-23T03:39:40.379Z,15.35
2019-05-23T03:44:48.487Z,16.62
2019-05-23T03:49:55.566Z,15.58
2019-05-23T03:55:02.531Z,16.48
2019-05-23T04:00:14.214Z,14.83
2019-05-23T04:05:22.265Z,16.62
2019-05-23T04:10:28.895Z,13.88
2019-05-23T04:15:36.066Z,16.97
2019-05-23T04:20:42.756Z,16.02
2019-05-23T04:25:49.574Z,13.98
2019-05-23T04:30:56.298Z,14.38
2019-05-23T04:36:03.083Z,15.45
2019-05-23T04:41:10.025Z,13.38
2019-05-23T04:46:16.840Z,12.95
2019-05-23T04:51:24.108Z,19.37
2019-05-23T04:56:31.195Z,12.05
2019-05-23T05:01:39.203Z,12.98
2019-05-23T05:06:47.766Z,14.43
2019-05-23T05:11:54.813Z,11.50
2019-05-23T05:17:02.025Z,12.33
2019-05-23T05:22:08.745Z,11.85
2019-05-23T05:27:17.129Z,11.10
2019-05-23T05:32:23.961Z,12.37
2019-05-23T05:37:31.293Z,12.30
2019-05-23T05:42:39.322Z,12.63
2019-05-23T05:47:46.421Z,11.80
2019-05-23T05:52:53.580Z,13.72
2019-05-23T05:58:00.149Z,9.78
2019-05-23T06:03:07.662Z,10.75
2019-05-23T06:08:14.879Z,11.83
2019-05-23T06:13:21.863Z,10.95
2019-05-23T06:18:28.917Z,11.70
2019-05-23T06:23:36.671Z,12.58
2019-05-23T06:28:44.658Z,9.83
2019-05-23T06:33:52.206Z,8.58
2019-05-23T06:38:59.609Z,7.28
2019-05-23T06:44:07.547Z,8.65
2019-05-23T06:49:14.250Z,8.25
2019-05-23T06:54:20.873Z,10.03
2019-05-23T06:59:27.458Z,8.90
2019-05-23T07:04:34.178Z,8.65
2019-05-23T07:09:40.971Z,7.92
2019-05-23T07:14:47.536Z,6.30
2019-05-23T07:19:54.268Z,7.12
2019-05-23T07:25:01.168Z,10.40
2019-05-23T07:30:13.696Z,12.37
2019-05-23T07:35:20.650Z,11.57
2019-05-23T07:40:29.234Z,9.90
2019-05-23T07:45:50.063Z,7.47
2019-05-23T07:50:56.747Z,12.93
2019-05-23T07:56:04.400Z,7.78
2019-05-23T08:01:13.825Z,7.40
2019-05-23T08:06:20.981Z,8.98
2019-05-23T08:11:27.955Z,7.20
2019-05-23T08:16:34.983Z,6.65
2019-05-23T08:21:41.764Z,7.70
2019-05-23T08:26:49.858Z,8.03
2019-05-23T08:31:57.096Z,8.83
2019-05-23T08:37:04.652Z,7.25
2019-05-23T08:42:12.913Z,7.22
2019-05-23T08:47:19.941Z,10.60
2019-05-23T08:52:26.570Z,10.70
2019-05-23T08:57:33.435Z,9.73
2019-05-23T09:02:41.524Z,9.13
2019-05-23T09:07:48.912Z,6.90
2019-05-23T09:12:55.892Z,7.05
2019-05-23T09:18:02.969Z,9.05
2019-05-23T09:23:10.163Z,8.60
2019-05-23T09:28:17.209Z,8.78
2019-05-23T09:33:23.847Z,6.50
2019-05-23T09:38:30.583Z,7.83
2019-05-23T09:43:37.206Z,7.22
2019-05-23T09:48:44.302Z,9.80
2019-05-23T09:53:51.152Z,9.68
2019-05-23T09:58:57.801Z,6.30
2019-05-23T10:04:05.183Z,8.25
2019-05-23T10:09:13.974Z,8.93
2019-05-23T10:14:24.501Z,6.25
2019-05-23T10:19:31.075Z,6.53
2019-05-23T10:24:37.808Z,5.75
2019-05-23T10:29:51.906Z,8.50
2019-05-23T10:34:58.471Z,7.80
2019-05-23T10:40:06.144Z,5.92
2019-05-23T10:45:12.956Z,9.73
2019-05-23T10:50:19.600Z,5.42
2019-05-23T10:55:26.455Z,7.78
2019-05-23T11:00:33.897Z,4.72
2019-05-23T11:05:40.755Z,4.12
2019-05-23T11:10:47.642Z,2.77
2019-05-23T11:15:54.473Z,2.85
2019-05-23T11:21:01.151Z,6.92
2019-05-23T11:26:09.601Z,8.30
2019-05-23T11:31:16.967Z,3.87
2019-05-23T11:36:35.761Z,3.35
2019-05-23T11:41:33.894Z,5.35
2019-05-23T11:46:41.043Z,9.18
2019-05-23T11:51:47.796Z,5.10
2019-05-23T11:56:55.305Z,3.30
2019-05-23T12:02:11.103Z,5.92
2019-05-23T12:07:27.454Z,5.60
2019-05-23T12:12:34.203Z,5.58
2019-05-23T12:17:41.864Z,5.12
2019-05-23T12:22:49.032Z,6.10
2019-05-23T12:27:55.758Z,5.83
2019-05-23T12:33:02.330Z,7.53
2019-05-23T12:38:09.602Z,5.53
2019-05-23T12:43:17.752Z,10.10
2019-05-23T12:48:35.699Z,8.00
2019-05-23T12:53:42.704Z,6.28
2019-05-23T12:58:50.320Z,9.83
2019-05-23T13:03:57.417Z,9.03
2019-05-23T13:09:05.197Z,8.10
2019-05-23T13:14:11.978Z,9.80
2019-05-23T13:19:18.746Z,9.15
2019-05-23T13:24:25.536Z,9.60
2019-05-23T13:29:32.627Z,9.70
2019-05-23T13:34:39.268Z,10.95
2019-05-23T13:39:46.288Z,9.70
2019-05-23T13:44:53.004Z,10.23
2019-05-23T13:49:59.886Z,8.05
2019-05-23T13:55:07.313Z,8.30
2019-05-23T14:00:15.332Z,8.33
2019-05-23T14:05:22.300Z,9.60
2019-05-23T14:10:29.323Z,10.95
2019-05-23T14:15:40.874Z,9.95
2019-05-23T14:20:48.400Z,10.98
2019-05-23T14:25:56.895Z,8.00
2019-05-23T14:31:09.179Z,10.40
2019-05-23T14:36:24.058Z,6.60
2019-05-23T14:41:45.389Z,5.78
2019-05-23T14:47:06.429Z,7.35
2019-05-23T14:52:21.016Z,10.32
2019-05-23T14:57:27.701Z,6.30
2019-05-23T15:02:35.093Z,6.28
2019-05-23T15:07:42.833Z,9.93
2019-05-23T15:12:49.510Z,9.03
2019-05-23T15:17:56.055Z,6.28
2019-05-23T15:23:02.752Z,5.95
2019-05-23T15:28:09.899Z,6.75
2019-05-23T15:33:16.595Z,7.30
2019-05-23T15:38:26.025Z,7.75
2019-05-23T15:43:40.394Z,11.40
2019-05-23T15:48:48.097Z,6.70
2019-05-23T15:54:12.020Z,11.03
2019-05-23T15:59:30.906Z,5.20
2019-05-23T16:04:41.097Z,5.60
2019-05-23T16:09:48.088Z,6.20
2019-05-23T16:14:54.696Z,6.15
2019-05-23T16:20:01.354Z,9.05
2019-05-23T16:25:09.715Z,4.87
2019-05-23T16:30:16.572Z,5.40
2019-05-23T16:35:23.220Z,5.55
2019-05-23T16:40:29.850Z,3.72
2019-05-23T16:45:36.567Z,4.08
2019-05-23T16:50:43.312Z,4.75
2019-05-23T16:56:05.751Z,5.37
2019-05-23T17:01:24.732Z,4.67
2019-05-23T17:06:42.047Z,4.62
2019-05-23T17:11:55.653Z,7.42
2019-05-23T17:17:48.968Z,5.95
2019-05-23T17:22:47.526Z,3.92
2019-05-23T17:28:11.904Z,6.58
2019-05-23T17:33:19.987Z,4.60
2019-05-23T17:38:28.574Z,4.30
2019-05-23T17:43:37.804Z,4.40
2019-05-23T17:48:47.920Z,5.65
2019-05-23T17:53:55.595Z,4.70
2019-05-23T17:59:02.289Z,5.03
2019-05-23T18:04:09.559Z,3.62
2019-05-23T18:09:17.110Z,4.97
2019-05-23T18:14:23.883Z,4.95
2019-05-23T18:19:30.549Z,4.15
2019-05-23T18:24:39.437Z,7.50
2019-05-23T18:29:48.049Z,4.25
2019-05-23T18:34:56.522Z,8.05
2019-05-23T18:40:03.613Z,7.45
2019-05-23T18:45:12.283Z,6.03
2019-05-23T18:50:21.400Z,7.58
2019-05-23T18:55:28.146Z,5.40
2019-05-23T19:01:04.206Z,8.18
2019-05-23T19:06:10.846Z,11.10
2019-05-23T19:11:21.226Z,7.17
2019-05-23T19:16:26.709Z,12.63
2019-05-23T19:21:34.378Z,9.95
2019-05-23T19:26:41.716Z,8.33
2019-05-23T19:31:49.317Z,6.60
2019-05-23T19:36:56.339Z,8.95
2019-05-23T19:42:03.399Z,8.35
2019-05-23T19:47:10.041Z,15.03
2019-05-23T19:52:17.112Z,13.88
2019-05-23T19:57:23.864Z,8.95
2019-05-23T20:02:44.970Z,11.65
2019-05-23T20:07:51.807Z,9.55
2019-05-23T20:12:58.430Z,8.58
2019-05-23T20:18:06.843Z,8.75
2019-05-23T20:23:16.157Z,11.25
2019-05-23T20:28:23.419Z,9.45
2019-05-23T20:33:30.769Z,11.10
2019-05-23T20:38:37.409Z,10.08
2019-05-23T20:43:44.019Z,12.68
2019-05-23T20:48:51.714Z,9.08
2019-05-23T20:53:58.289Z,15.08
2019-05-23T20:59:05.691Z,11.85
2019-05-23T21:04:12.298Z,9.63
2019-05-23T21:09:18.925Z,10.72
2019-05-23T21:14:25.484Z,9.93
2019-05-23T21:19:32.006Z,11.65
2019-05-23T21:24:38.720Z,16.35
2019-05-23T21:29:45.319Z,12.00
2019-05-23T21:34:51.818Z,26.57
2019-05-23T21:39:58.558Z,17.48
2019-05-23T21:45:06.041Z,16.10
2019-05-23T21:50:13.400Z,13.85
2019-05-23T21:55:32.955Z,11.15
2019-05-23T22:01:27.111Z,10.75
2019-05-23T22:06:35.735Z,12.70
2019-05-23T22:11:42.763Z,7.90
2019-05-23T22:21:55.131Z,10.30
2019-05-23T22:27:01.741Z,9.25
2019-05-23T22:32:10.226Z,9.63
2019-05-23T22:37:30.876Z,10.72
2019-05-23T22:42:37.713Z,9.38
2019-05-23T22:47:44.445Z,11.78
2019-05-23T22:52:50.980Z,12.73
2019-05-23T22:57:57.565Z,9.93
2019-05-23T23:03:04.490Z,10.53
2019-05-23T23:08:11.220Z,9.85
2019-05-23T23:13:17.946Z,9.35
2019-05-23T23:18:24.489Z,8.13
2019-05-23T23:23:31.073Z,10.58
2019-05-23T23:28:38.048Z,10.82
2019-05-23T23:33:44.603Z,13.15
2019-05-23T23:38:51.213Z,8.18
2019-05-23T23:43:59.928Z,9.95
2019-05-23T23:49:24.147Z,9.15
2019-05-23T23:54:48.586Z,10.88
2019-05-23T23:59:54.219Z,10.18
